Bookmark and Share
Track history (hours):
 

Autopride

Last reported at 2014-Apr-17 15:33 UTC. Time now 2014-Apr-18 08:05 UTC.
Position N 50°11' W 002°05'.

Length 125 m; draft 4.8 m.

Type: Cargo ship. MMSI: 255801560.

NotesDate/timePositionNaut miles runAvg speedWind from/ knotsBaromVisibWave heightAir tempDewpointWater temp
2014-Apr-17 15:33N 50°11' W 002°05'1312.8
2014-Apr-17 14:33N 50°22' W 001°55'1312.7
2014-Apr-17 13:33N 50°32' W 001°44'1413.5
2014-Apr-17 12:34N 50°43' W 001°31'1110.6
2014-Apr-17 11:33N 50°51' W 001°20'5 4.4
2014-Apr-17 10:31N 50°54' W 001°26'0 0.0
2014-Apr-17 09:31N 50°54' W 001°26'0 0.0
2014-Apr-17 08:34N 50°54' W 001°26'0 0.0
2014-Apr-17 07:33N 50°54' W 001°26'0 0.0
2014-Apr-17 06:34N 50°54' W 001°26'0 0.0
2014-Apr-17 05:33N 50°54' W 001°26'5 5.1
2014-Apr-17 04:33N 50°51' W 001°20'1110.8
2014-Apr-17 03:33N 50°45' W 001°06'1111.3
2014-Apr-17 02:34N 50°39' W 000°50'1211.7
2014-Apr-17 01:33N 50°36' W 000°33'1212.1
2014-Apr-17 00:34N 50°33' W 000°14'1312.5
2014-Apr-16 23:33N 50°33' E 000°06'1212.2
2014-Apr-16 22:33N 50°36' E 000°25'1211.6
2014-Apr-16 21:34N 50°41' E 000°41'1211.5
2014-Apr-16 20:34N 50°48' E 000°56'1211.8
2014-Apr-16 19:33N 50°55' E 001°10'1414.1
2014-Apr-16 18:34N 51°04' E 001°28'1515.3
2014-Apr-16 17:34N 51°14' E 001°46'1413.6
2014-Apr-16 16:33N 51°25' E 002°00'1313.3
2014-Apr-16 15:33N 51°21' E 002°21'1312.6
2014-Apr-16 14:33N 51°23' E 002°41'1312.9
2014-Apr-16 13:33N 51°24' E 003°01'8 8.5
2014-Apr-16 12:34N 51°20' E 003°13'1 0.5
2014-Apr-16 11:33N 51°19' E 003°13'0 0.0
2014-Apr-16 10:33N 51°19' E 003°13'0 0.0
2014-Apr-16 09:33N 51°19' E 003°13'0 0.0
2014-Apr-16 08:33N 51°19' E 003°13'0 0.0
2014-Apr-16 07:33N 51°19' E 003°13'0 0.0
2014-Apr-16 06:30N 51°19' E 003°13'0 0.0
2014-Apr-16 05:12N 51°19' E 003°13'0 0.0
2014-Apr-16 04:33N 51°19' E 003°13'0 0.0
2014-Apr-16 03:33N 51°19' E 003°13'0 0.0
2014-Apr-16 02:33N 51°19' E 003°13'0 0.0
2014-Apr-16 01:21N 51°19' E 003°13'0 0.0
2014-Apr-16 00:33N 51°19' E 003°13'0 0.0
2014-Apr-15 23:33N 51°19' E 003°13'0 0.0
2014-Apr-15 22:33N 51°19' E 003°13'0 0.0
2014-Apr-15 21:33N 51°19' E 003°13'0 0.0
2014-Apr-15 20:30N 51°19' E 003°13'0 0.0
2014-Apr-15 19:33N 51°19' E 003°13'0 0.0
2014-Apr-15 18:33N 51°19' E 003°13'0 0.0
2014-Apr-15 17:33N 51°19' E 003°13'0 0.0
2014-Apr-15 16:33N 51°19' E 003°13'0 0.0
2014-Apr-15 15:33N 51°19' E 003°13'0 0.2
2014-Apr-15 14:32N 51°19' E 003°13'0 0.0
2014-Apr-15 12:32N 51°19' E 003°13'0 0.3
2014-Apr-15 11:34N 51°19' E 003°13'3 2.6
2014-Apr-15 10:34N 51°22' E 003°12'1111.4
2014-Apr-15 09:34N 51°24' E 002°54'1010.3
2014-Apr-15 08:34N 51°22' E 002°38'4 3.7
2014-Apr-15 07:33N 51°22' E 002°32'4 3.7
2014-Apr-15 06:34N 51°21' E 002°26'3 2.9
2014-Apr-15 05:34N 51°20' E 002°22'10 5.0
2014-Apr-15 03:33N 51°15' E 002°08'7 6.9
2014-Apr-15 02:34N 51°11' E 001°59'7 7.3
2014-Apr-15 01:34N 51°08' E 001°49'9 8.5
2014-Apr-15 00:34N 51°01' E 001°39'10 9.6
2014-Apr-14 23:33N 50°54' E 001°29'45 9.0
2014-Apr-14 18:33N 50°24' E 000°37'9 9.3
2014-Apr-14 17:32N 50°21' E 000°22'23 7.7
2014-Apr-14 14:34N 50°15' W 000°12'23 5.6
2014-Apr-14 10:33N 50°11' W 000°47'6 5.8
2014-Apr-14 09:29N 50°09' W 000°56'7 7.5
2014-Apr-14 08:33N 50°07' W 001°07'  
2014-Apr-10 17:33N 50°14' W 001°19'1110.9
2014-Apr-10 16:33N 50°17' W 001°03'1211.8
2014-Apr-10 15:33N 50°21' W 000°45'1212.4
2014-Apr-10 14:33N 50°24' W 000°27'1713.5
2014-Apr-10 13:20N 50°29' W 000°02'1213.9
2014-Apr-10 12:28N 50°33' E 000°16'1314.0
2014-Apr-10 11:33N 50°38' E 000°35'1413.6
2014-Apr-10 10:33N 50°46' E 000°52'1312.7
2014-Apr-10 09:33N 50°54' E 001°08'1212.0
2014-Apr-10 08:33N 51°02' E 001°22'1111.4
2014-Apr-10 07:34N 51°09' E 001°36'1212.5
2014-Apr-10 06:33N 51°18' E 001°50'1111.0
2014-Apr-10 05:32N 51°23' E 002°06'1212.1
2014-Apr-10 04:34N 51°22' E 002°24'1212.3
2014-Apr-10 03:34N 51°23' E 002°44'1716.7
2014-Apr-10 02:33N 51°22' E 003°11'2 1.8
2014-Apr-10 01:34N 51°21' E 003°12'1 0.8
2014-Apr-10 00:33N 51°20' E 003°13'0 0.1
2014-Apr-09 23:33N 51°20' E 003°13'1 0.5
2014-Apr-09 22:33N 51°19' E 003°13'0 0.0
2014-Apr-09 21:33N 51°19' E 003°13'0 0.0
2014-Apr-09 20:33N 51°19' E 003°13'0 0.0
2014-Apr-09 19:33N 51°19' E 003°13'0 0.0
2014-Apr-09 18:33N 51°19' E 003°13'0 0.0
2014-Apr-09 17:33N 51°19' E 003°13'0 0.0
2014-Apr-09 16:33N 51°19' E 003°13'0 0.0
2014-Apr-09 15:33N 51°19' E 003°13'1 0.5
2014-Apr-09 14:31N 51°20' E 003°13'1 0.7
2014-Apr-09 13:34N 51°21' E 003°12'7 6.9
2014-Apr-09 12:33N 51°24' E 003°03'1414.5
2014-Apr-09 11:33N 51°22' E 002°40'9 9.3
2014-Apr-09 10:34N 51°21' E 002°25'9 9.2
2014-Apr-09 09:33N 51°16' E 002°12'9 9.2
2014-Apr-09 08:34N 51°12' E 001°60'1414.1
2014-Apr-09 07:33N 51°03' E 001°42'1818.2
2014-Apr-09 06:33N 50°48' E 001°26'1818.3
2014-Apr-09 05:33N 50°34' E 001°08'1918.0
2014-Apr-09 04:29N 50°27' E 000°40'1818.8
2014-Apr-09 03:32N 50°23' E 000°12'4118.9
2014-Apr-09 01:23N 50°12' W 000°49'1518.5
2014-Apr-09 00:33N 50°08' W 001°12'1918.0
2014-Apr-08 23:31N 50°04' W 001°40'  

Dump ship's entire track history

sailing weather and tide predictions

Autopride — CQQE — position and weather